sensor_id;sensor_type;location;lat;lon;timestamp;temperature;humidity
41756;DHT22;27435;48.480;9.258;2023-11-22T00:01:51;6.80;99.00
41756;DHT22;27435;48.480;9.258;2023-11-22T00:04:17;6.80;99.00
41756;DHT22;27435;48.480;9.258;2023-11-22T00:06:43;6.70;99.00
41756;DHT22;27435;48.480;9.258;2023-11-22T00:09:09;6.80;99.00
41756;DHT22;27435;48.480;9.258;2023-11-22T00:11:35;7.00;99.00
41756;DHT22;27435;48.480;9.258;2023-11-22T00:14:01;6.80;99.00
41756;DHT22;27435;48.480;9.258;2023-11-22T00:16:26;6.80;99.00
41756;DHT22;27435;48.480;9.258;2023-11-22T00:18:53;6.80;99.00
41756;DHT22;27435;48.480;9.258;2023-11-22T00:21:18;6.80;99.00
41756;DHT22;27435;48.480;9.258;2023-11-22T00:23:45;6.70;99.00
41756;DHT22;27435;48.480;9.258;2023-11-22T00:26:12;6.80;99.00
41756;DHT22;27435;48.480;9.258;2023-11-22T00:28:37;6.80;99.00
41756;DHT22;27435;48.480;9.258;2023-11-22T00:31:03;6.80;99.00
41756;DHT22;27435;48.480;9.258;2023-11-22T00:33:29;6.80;99.00
41756;DHT22;27435;48.480;9.258;2023-11-22T00:35:57;6.70;99.00
41756;DHT22;27435;48.480;9.258;2023-11-22T00:38:23;6.70;99.00
41756;DHT22;27435;48.480;9.258;2023-11-22T00:40:49;6.80;99.00
41756;DHT22;27435;48.480;9.258;2023-11-22T00:43:15;6.80;99.00
41756;DHT22;27435;48.480;9.258;2023-11-22T00:45:41;6.80;99.00
41756;DHT22;27435;48.480;9.258;2023-11-22T00:48:07;6.80;99.00
41756;DHT22;27435;48.480;9.258;2023-11-22T00:50:33;6.70;99.00
41756;DHT22;27435;48.480;9.258;2023-11-22T00:52:58;6.70;99.00
41756;DHT22;27435;48.480;9.258;2023-11-22T00:55:24;6.80;99.00
41756;DHT22;27435;48.480;9.258;2023-11-22T00:57:50;6.80;99.00
41756;DHT22;27435;48.480;9.258;2023-11-22T01:00:16;6.80;99.00
41756;DHT22;27435;48.480;9.258;2023-11-22T01:02:41;6.80;99.00
41756;DHT22;27435;48.480;9.258;2023-11-22T01:05:08;6.80;99.00
41756;DHT22;27435;48.480;9.258;2023-11-22T01:07:38;6.70;99.00
41756;DHT22;27435;48.480;9.258;2023-11-22T01:10:04;6.80;99.00
41756;DHT22;27435;48.480;9.258;2023-11-22T01:12:31;6.80;99.00
41756;DHT22;27435;48.480;9.258;2023-11-22T01:14:57;6.80;99.00
41756;DHT22;27435;48.480;9.258;2023-11-22T01:17:22;6.80;99.00
41756;DHT22;27435;48.480;9.258;2023-11-22T01:19:49;6.80;99.00
41756;DHT22;27435;48.480;9.258;2023-11-22T01:22:16;6.80;99.00
41756;DHT22;27435;48.480;9.258;2023-11-22T01:24:42;6.80;99.00
41756;DHT22;27435;48.480;9.258;2023-11-22T01:27:08;6.80;99.00
41756;DHT22;27435;48.480;9.258;2023-11-22T01:29:34;6.80;99.00
41756;DHT22;27435;48.480;9.258;2023-11-22T01:32:00;6.70;99.00
41756;DHT22;27435;48.480;9.258;2023-11-22T01:34:26;6.60;99.00
41756;DHT22;27435;48.480;9.258;2023-11-22T01:36:52;6.30;99.00
41756;DHT22;27435;48.480;9.258;2023-11-22T01:39:17;6.30;99.00
41756;DHT22;27435;48.480;9.258;2023-11-22T01:41:46;6.20;99.00
41756;DHT22;27435;48.480;9.258;2023-11-22T01:44:15;6.10;99.00
41756;DHT22;27435;48.480;9.258;2023-11-22T01:46:41;6.10;99.00
41756;DHT22;27435;48.480;9.258;2023-11-22T01:49:09;5.90;99.00
41756;DHT22;27435;48.480;9.258;2023-11-22T01:51:36;5.80;99.00
41756;DHT22;27435;48.480;9.258;2023-11-22T01:54:02;5.70;99.00
41756;DHT22;27435;48.480;9.258;2023-11-22T01:56:29;5.60;99.00
41756;DHT22;27435;48.480;9.258;2023-11-22T01:58:55;5.50;99.00
41756;DHT22;27435;48.480;9.258;2023-11-22T02:01:22;5.20;99.00
41756;DHT22;27435;48.480;9.258;2023-11-22T02:03:48;5.20;99.00
41756;DHT22;27435;48.480;9.258;2023-11-22T02:06:15;5.10;99.00
41756;DHT22;27435;48.480;9.258;2023-11-22T02:08:44;5.00;99.00
41756;DHT22;27435;48.480;9.258;2023-11-22T02:11:10;5.10;99.00
41756;DHT22;27435;48.480;9.258;2023-11-22T02:13:36;5.00;99.00
41756;DHT22;27435;48.480;9.258;2023-11-22T02:16:02;4.90;99.00
41756;DHT22;27435;48.480;9.258;2023-11-22T02:18:29;4.80;99.00
41756;DHT22;27435;48.480;9.258;2023-11-22T02:20:54;4.80;99.00
41756;DHT22;27435;48.480;9.258;2023-11-22T02:23:20;4.70;99.00
41756;DHT22;27435;48.480;9.258;2023-11-22T02:25:46;4.80;99.00
41756;DHT22;27435;48.480;9.258;2023-11-22T02:28:12;4.80;99.00
41756;DHT22;27435;48.480;9.258;2023-11-22T02:30:38;4.70;99.00
41756;DHT22;27435;48.480;9.258;2023-11-22T02:33:04;4.60;99.00
41756;DHT22;27435;48.480;9.258;2023-11-22T02:35:32;4.50;99.00
41756;DHT22;27435;48.480;9.258;2023-11-22T02:37:59;4.50;99.00
41756;DHT22;27435;48.480;9.258;2023-11-22T02:40:25;4.60;99.00
41756;DHT22;27435;48.480;9.258;2023-11-22T02:42:52;4.50;99.00
41756;DHT22;27435;48.480;9.258;2023-11-22T02:45:22;4.60;99.00
41756;DHT22;27435;48.480;9.258;2023-11-22T02:47:49;4.50;99.00
41756;DHT22;27435;48.480;9.258;2023-11-22T02:50:15;4.50;99.00
41756;DHT22;27435;48.480;9.258;2023-11-22T02:52:41;4.40;99.00
41756;DHT22;27435;48.480;9.258;2023-11-22T02:55:08;4.50;99.00
41756;DHT22;27435;48.480;9.258;2023-11-22T02:57:35;4.40;99.00
41756;DHT22;27435;48.480;9.258;2023-11-22T03:00:02;4.30;99.00
41756;DHT22;27435;48.480;9.258;2023-11-22T03:02:29;4.10;99.00
41756;DHT22;27435;48.480;9.258;2023-11-22T03:04:55;4.20;99.00
41756;DHT22;27435;48.480;9.258;2023-11-22T03:07:20;4.30;99.00
41756;DHT22;27435;48.480;9.258;2023-11-22T03:09:46;4.20;99.00
41756;DHT22;27435;48.480;9.258;2023-11-22T03:12:12;4.10;99.00
41756;DHT22;27435;48.480;9.258;2023-11-22T03:14:40;4.00;99.00
41756;DHT22;27435;48.480;9.258;2023-11-22T03:17:06;4.00;99.00
41756;DHT22;27435;48.480;9.258;2023-11-22T03:19:32;4.00;99.00
41756;DHT22;27435;48.480;9.258;2023-11-22T03:22:00;4.00;99.00
41756;DHT22;27435;48.480;9.258;2023-11-22T03:24:29;4.00;99.00
41756;DHT22;27435;48.480;9.258;2023-11-22T03:26:55;4.10;99.00
41756;DHT22;27435;48.480;9.258;2023-11-22T03:29:27;4.00;99.00
41756;DHT22;27435;48.480;9.258;2023-11-22T03:31:53;4.00;99.00
41756;DHT22;27435;48.480;9.258;2023-11-22T03:34:19;4.00;99.00
41756;DHT22;27435;48.480;9.258;2023-11-22T03:36:45;3.80;99.00
41756;DHT22;27435;48.480;9.258;2023-11-22T03:39:11;3.70;99.00
41756;DHT22;27435;48.480;9.258;2023-11-22T03:41:37;3.60;99.00
41756;DHT22;27435;48.480;9.258;2023-11-22T03:44:06;3.40;99.00
41756;DHT22;27435;48.480;9.258;2023-11-22T03:46:35;3.40;99.00
41756;DHT22;27435;48.480;9.258;2023-11-22T03:49:04;3.30;99.00
41756;DHT22;27435;48.480;9.258;2023-11-22T03:51:32;3.30;99.00
41756;DHT22;27435;48.480;9.258;2023-11-22T03:53:58;3.20;99.00
41756;DHT22;27435;48.480;9.258;2023-11-22T03:56:24;3.20;99.00
41756;DHT22;27435;48.480;9.258;2023-11-22T03:58:50;3.10;99.00
41756;DHT22;27435;48.480;9.258;2023-11-22T04:01:16;3.00;99.00
41756;DHT22;27435;48.480;9.258;2023-11-22T04:03:42;3.00;99.00
41756;DHT22;27435;48.480;9.258;2023-11-22T04:06:08;3.00;99.00
41756;DHT22;27435;48.480;9.258;2023-11-22T04:08:33;3.00;99.00
41756;DHT22;27435;48.480;9.258;2023-11-22T04:10:59;3.00;99.00
41756;DHT22;27435;48.480;9.258;2023-11-22T04:13:24;3.00;99.00
41756;DHT22;27435;48.480;9.258;2023-11-22T04:15:51;3.00;99.00
41756;DHT22;27435;48.480;9.258;2023-11-22T04:18:16;3.00;99.00
41756;DHT22;27435;48.480;9.258;2023-11-22T04:20:42;2.90;99.00
41756;DHT22;27435;48.480;9.258;2023-11-22T04:23:08;3.00;99.00
41756;DHT22;27435;48.480;9.258;2023-11-22T04:25:36;2.90;99.00
41756;DHT22;27435;48.480;9.258;2023-11-22T04:28:03;2.80;99.00
41756;DHT22;27435;48.480;9.258;2023-11-22T04:30:28;2.80;99.00
41756;DHT22;27435;48.480;9.258;2023-11-22T04:32:54;2.80;99.00
41756;DHT22;27435;48.480;9.258;2023-11-22T04:35:20;2.80;99.00
41756;DHT22;27435;48.480;9.258;2023-11-22T04:37:45;2.70;99.00
41756;DHT22;27435;48.480;9.258;2023-11-22T04:40:12;2.60;99.00
41756;DHT22;27435;48.480;9.258;2023-11-22T04:42:39;2.60;99.00
41756;DHT22;27435;48.480;9.258;2023-11-22T04:45:06;2.60;99.00
41756;DHT22;27435;48.480;9.258;2023-11-22T04:47:32;2.50;99.00
41756;DHT22;27435;48.480;9.258;2023-11-22T04:49:57;2.50;99.00
41756;DHT22;27435;48.480;9.258;2023-11-22T04:52:23;2.40;99.00
41756;DHT22;27435;48.480;9.258;2023-11-22T04:54:49;2.40;99.00
41756;DHT22;27435;48.480;9.258;2023-11-22T04:57:14;2.50;99.00
41756;DHT22;27435;48.480;9.258;2023-11-22T04:59:40;2.20;99.00
41756;DHT22;27435;48.480;9.258;2023-11-22T05:02:06;2.20;99.00
41756;DHT22;27435;48.480;9.258;2023-11-22T05:04:32;2.20;99.00
41756;DHT22;27435;48.480;9.258;2023-11-22T05:06:58;2.20;99.00
41756;DHT22;27435;48.480;9.258;2023-11-22T05:09:24;2.20;99.00
41756;DHT22;27435;48.480;9.258;2023-11-22T05:11:49;2.20;99.00
41756;DHT22;27435;48.480;9.258;2023-11-22T05:14:17;2.20;99.00
41756;DHT22;27435;48.480;9.258;2023-11-22T05:16:43;2.20;99.00
41756;DHT22;27435;48.480;9.258;2023-11-22T05:19:09;2.20;99.00
41756;DHT22;27435;48.480;9.258;2023-11-22T05:21:35;2.10;99.00
41756;DHT22;27435;48.480;9.258;2023-11-22T05:24:01;2.10;99.00
41756;DHT22;27435;48.480;9.258;2023-11-22T05:26:27;2.00;99.00
41756;DHT22;27435;48.480;9.258;2023-11-22T05:28:52;2.00;99.00
41756;DHT22;27435;48.480;9.258;2023-11-22T05:31:20;2.00;99.00
41756;DHT22;27435;48.480;9.258;2023-11-22T05:33:46;2.00;99.00
41756;DHT22;27435;48.480;9.258;2023-11-22T05:36:12;2.00;99.00
41756;DHT22;27435;48.480;9.258;2023-11-22T05:38:37;2.10;99.00
41756;DHT22;27435;48.480;9.258;2023-11-22T05:41:03;2.20;99.00
41756;DHT22;27435;48.480;9.258;2023-11-22T05:43:29;2.20;99.00
41756;DHT22;27435;48.480;9.258;2023-11-22T05:45:55;2.10;99.00
41756;DHT22;27435;48.480;9.258;2023-11-22T05:48:21;2.10;99.00
41756;DHT22;27435;48.480;9.258;2023-11-22T05:50:47;2.20;99.00
41756;DHT22;27435;48.480;9.258;2023-11-22T05:53:13;2.20;99.00
41756;DHT22;27435;48.480;9.258;2023-11-22T05:55:45;2.20;99.00
41756;DHT22;27435;48.480;9.258;2023-11-22T05:58:13;2.20;99.00
41756;DHT22;27435;48.480;9.258;2023-11-22T06:00:42;2.20;99.00
41756;DHT22;27435;48.480;9.258;2023-11-22T06:03:09;2.10;99.00
41756;DHT22;27435;48.480;9.258;2023-11-22T06:05:35;2.20;99.00
41756;DHT22;27435;48.480;9.258;2023-11-22T06:08:00;2.10;99.00
41756;DHT22;27435;48.480;9.258;2023-11-22T06:10:26;2.10;99.00
41756;DHT22;27435;48.480;9.258;2023-11-22T06:12:52;2.10;99.00
41756;DHT22;27435;48.480;9.258;2023-11-22T06:15:17;2.10;99.00
41756;DHT22;27435;48.480;9.258;2023-11-22T06:17:46;2.10;99.00
41756;DHT22;27435;48.480;9.258;2023-11-22T06:20:12;2.00;99.00
41756;DHT22;27435;48.480;9.258;2023-11-22T06:22:39;2.00;99.00
41756;DHT22;27435;48.480;9.258;2023-11-22T06:25:10;2.10;99.00
41756;DHT22;27435;48.480;9.258;2023-11-22T06:27:37;2.00;99.00
41756;DHT22;27435;48.480;9.258;2023-11-22T06:30:03;1.90;99.00
41756;DHT22;27435;48.480;9.258;2023-11-22T06:32:28;1.90;99.00
41756;DHT22;27435;48.480;9.258;2023-11-22T06:34:54;1.80;99.00
41756;DHT22;27435;48.480;9.258;2023-11-22T06:37:20;1.70;99.00
41756;DHT22;27435;48.480;9.258;2023-11-22T06:39:46;1.60;99.00
41756;DHT22;27435;48.480;9.258;2023-11-22T06:42:12;1.70;99.00
41756;DHT22;27435;48.480;9.258;2023-11-22T06:44:38;1.70;99.00
41756;DHT22;27435;48.480;9.258;2023-11-22T06:47:05;1.70;99.00
41756;DHT22;27435;48.480;9.258;2023-11-22T06:49:33;1.70;99.00
41756;DHT22;27435;48.480;9.258;2023-11-22T06:51:58;1.60;99.00
41756;DHT22;27435;48.480;9.258;2023-11-22T06:54:24;1.60;99.00
41756;DHT22;27435;48.480;9.258;2023-11-22T06:56:49;1.60;99.00
41756;DHT22;27435;48.480;9.258;2023-11-22T06:59:16;1.60;99.00
41756;DHT22;27435;48.480;9.258;2023-11-22T07:01:42;1.70;99.00
41756;DHT22;27435;48.480;9.258;2023-11-22T07:04:08;1.80;99.00
41756;DHT22;27435;48.480;9.258;2023-11-22T07:06:34;1.80;99.00
41756;DHT22;27435;48.480;9.258;2023-11-22T07:09:01;1.80;99.00
41756;DHT22;27435;48.480;9.258;2023-11-22T07:11:27;1.80;99.00
41756;DHT22;27435;48.480;9.258;2023-11-22T07:13:56;1.90;99.00
41756;DHT22;27435;48.480;9.258;2023-11-22T07:16:23;1.90;99.00
41756;DHT22;27435;48.480;9.258;2023-11-22T07:18:50;1.90;99.00
41756;DHT22;27435;48.480;9.258;2023-11-22T07:21:16;1.80;99.00
41756;DHT22;27435;48.480;9.258;2023-11-22T07:23:42;1.80;99.00
41756;DHT22;27435;48.480;9.258;2023-11-22T07:26:10;1.80;99.00
41756;DHT22;27435;48.480;9.258;2023-11-22T07:28:36;1.90;99.00
41756;DHT22;27435;48.480;9.258;2023-11-22T07:31:02;2.00;99.00
41756;DHT22;27435;48.480;9.258;2023-11-22T07:33:31;2.00;99.00
41756;DHT22;27435;48.480;9.258;2023-11-22T07:35:57;1.90;99.00
41756;DHT22;27435;48.480;9.258;2023-11-22T07:38:24;2.00;99.00
41756;DHT22;27435;48.480;9.258;2023-11-22T07:40:50;2.10;99.00
41756;DHT22;27435;48.480;9.258;2023-11-22T07:43:16;2.20;99.00
41756;DHT22;27435;48.480;9.258;2023-11-22T07:45:42;2.10;99.00
41756;DHT22;27435;48.480;9.258;2023-11-22T07:48:10;2.10;99.00
41756;DHT22;27435;48.480;9.258;2023-11-22T07:50:37;2.10;99.00
41756;DHT22;27435;48.480;9.258;2023-11-22T07:53:04;2.10;99.00
41756;DHT22;27435;48.480;9.258;2023-11-22T07:55:31;2.10;99.00
41756;DHT22;27435;48.480;9.258;2023-11-22T07:57:56;2.20;99.00
41756;DHT22;27435;48.480;9.258;2023-11-22T08:00:23;2.20;99.00
41756;DHT22;27435;48.480;9.258;2023-11-22T08:02:48;2.20;99.00
41756;DHT22;27435;48.480;9.258;2023-11-22T08:05:15;2.20;99.00
41756;DHT22;27435;48.480;9.258;2023-11-22T08:07:42;2.10;99.00
41756;DHT22;27435;48.480;9.258;2023-11-22T08:10:10;2.10;99.00
41756;DHT22;27435;48.480;9.258;2023-11-22T08:12:43;2.20;99.00
41756;DHT22;27435;48.480;9.258;2023-11-22T08:15:10;2.10;99.00
41756;DHT22;27435;48.480;9.258;2023-11-22T08:17:39;2.10;99.00
41756;DHT22;27435;48.480;9.258;2023-11-22T08:20:06;2.10;99.00
41756;DHT22;27435;48.480;9.258;2023-11-22T08:22:32;2.20;99.00
41756;DHT22;27435;48.480;9.258;2023-11-22T08:25:02;2.30;99.00
41756;DHT22;27435;48.480;9.258;2023-11-22T08:27:28;2.20;99.00
41756;DHT22;27435;48.480;9.258;2023-11-22T08:29:54;2.20;99.00
41756;DHT22;27435;48.480;9.258;2023-11-22T08:32:19;2.30;99.00
41756;DHT22;27435;48.480;9.258;2023-11-22T08:34:49;2.50;99.00
41756;DHT22;27435;48.480;9.258;2023-11-22T08:37:15;2.60;99.00
41756;DHT22;27435;48.480;9.258;2023-11-22T08:39:41;2.50;99.00
41756;DHT22;27435;48.480;9.258;2023-11-22T08:42:07;2.60;99.00
41756;DHT22;27435;48.480;9.258;2023-11-22T08:44:37;2.70;99.00
41756;DHT22;27435;48.480;9.258;2023-11-22T08:47:03;2.70;99.00
41756;DHT22;27435;48.480;9.258;2023-11-22T08:49:29;2.50;99.00
41756;DHT22;27435;48.480;9.258;2023-11-22T08:51:56;2.50;99.00
41756;DHT22;27435;48.480;9.258;2023-11-22T08:54:22;2.50;99.00
41756;DHT22;27435;48.480;9.258;2023-11-22T08:56:48;2.70;99.00
41756;DHT22;27435;48.480;9.258;2023-11-22T08:59:13;2.90;99.00
41756;DHT22;27435;48.480;9.258;2023-11-22T09:01:42;2.90;99.00
41756;DHT22;27435;48.480;9.258;2023-11-22T09:04:11;2.70;99.00
41756;DHT22;27435;48.480;9.258;2023-11-22T09:06:37;2.80;99.00
41756;DHT22;27435;48.480;9.258;2023-11-22T09:09:03;3.10;99.00
41756;DHT22;27435;48.480;9.258;2023-11-22T09:11:28;3.00;99.00
41756;DHT22;27435;48.480;9.258;2023-11-22T09:13:54;2.90;99.00
41756;DHT22;27435;48.480;9.258;2023-11-22T09:16:23;3.00;99.00
41756;DHT22;27435;48.480;9.258;2023-11-22T09:18:51;2.80;99.00
41756;DHT22;27435;48.480;9.258;2023-11-22T09:21:16;2.90;99.00
41756;DHT22;27435;48.480;9.258;2023-11-22T09:23:43;2.90;99.00
41756;DHT22;27435;48.480;9.258;2023-11-22T09:26:09;2.90;99.00
41756;DHT22;27435;48.480;9.258;2023-11-22T09:28:35;2.70;99.00
41756;DHT22;27435;48.480;9.258;2023-11-22T09:31:01;2.60;99.00
41756;DHT22;27435;48.480;9.258;2023-11-22T09:33:31;2.60;99.00
41756;DHT22;27435;48.480;9.258;2023-11-22T09:35:57;2.80;99.00
41756;DHT22;27435;48.480;9.258;2023-11-22T09:38:23;2.80;99.00
41756;DHT22;27435;48.480;9.258;2023-11-22T09:40:49;2.80;99.00
41756;DHT22;27435;48.480;9.258;2023-11-22T09:43:16;2.70;99.00
41756;DHT22;27435;48.480;9.258;2023-11-22T09:45:49;2.60;99.00
41756;DHT22;27435;48.480;9.258;2023-11-22T09:48:20;2.50;99.00
41756;DHT22;27435;48.480;9.258;2023-11-22T09:56:09;2.50;99.00
41756;DHT22;27435;48.480;9.258;2023-11-22T09:58:41;2.60;99.00
41756;DHT22;27435;48.480;9.258;2023-11-22T10:01:11;2.90;99.00
41756;DHT22;27435;48.480;9.258;2023-11-22T10:03:39;2.90;99.00
41756;DHT22;27435;48.480;9.258;2023-11-22T10:06:05;2.90;99.00
41756;DHT22;27435;48.480;9.258;2023-11-22T10:08:31;2.80;99.00
41756;DHT22;27435;48.480;9.258;2023-11-22T10:10:57;2.80;99.00
41756;DHT22;27435;48.480;9.258;2023-11-22T10:13:25;2.70;99.00
41756;DHT22;27435;48.480;9.258;2023-11-22T10:15:51;2.70;99.00
41756;DHT22;27435;48.480;9.258;2023-11-22T10:18:21;2.50;99.00
41756;DHT22;27435;48.480;9.258;2023-11-22T10:20:48;2.40;99.00
41756;DHT22;27435;48.480;9.258;2023-11-22T10:23:18;2.40;99.00
41756;DHT22;27435;48.480;9.258;2023-11-22T10:25:46;2.50;99.00
41756;DHT22;27435;48.480;9.258;2023-11-22T10:28:17;2.60;99.00
41756;DHT22;27435;48.480;9.258;2023-11-22T10:30:47;2.80;99.00
41756;DHT22;27435;48.480;9.258;2023-11-22T10:33:14;2.60;99.00
41756;DHT22;27435;48.480;9.258;2023-11-22T10:35:44;2.70;99.00
41756;DHT22;27435;48.480;9.258;2023-11-22T10:38:09;2.60;99.00
41756;DHT22;27435;48.480;9.258;2023-11-22T10:40:37;2.50;99.00
41756;DHT22;27435;48.480;9.258;2023-11-22T10:43:03;2.40;99.00
41756;DHT22;27435;48.480;9.258;2023-11-22T10:45:30;2.40;99.00
41756;DHT22;27435;48.480;9.258;2023-11-22T10:47:56;2.40;99.00
41756;DHT22;27435;48.480;9.258;2023-11-22T10:50:23;2.30;99.00
41756;DHT22;27435;48.480;9.258;2023-11-22T10:52:51;2.30;99.00
41756;DHT22;27435;48.480;9.258;2023-11-22T10:55:21;2.30;99.00
41756;DHT22;27435;48.480;9.258;2023-11-22T10:57:51;2.30;99.00
41756;DHT22;27435;48.480;9.258;2023-11-22T11:00:19;2.20;99.00
41756;DHT22;27435;48.480;9.258;2023-11-22T11:02:51;2.30;99.00
41756;DHT22;27435;48.480;9.258;2023-11-22T11:05:21;2.40;99.00
41756;DHT22;27435;48.480;9.258;2023-11-22T11:08:13;2.50;99.00
41756;DHT22;27435;48.480;9.258;2023-11-22T11:10:44;2.30;99.00
41756;DHT22;27435;48.480;9.258;2023-11-22T11:13:10;2.40;99.00
41756;DHT22;27435;48.480;9.258;2023-11-22T11:15:38;2.60;99.00
41756;DHT22;27435;48.480;9.258;2023-11-22T11:18:05;2.60;99.00
41756;DHT22;27435;48.480;9.258;2023-11-22T11:20:51;2.70;99.00
41756;DHT22;27435;48.480;9.258;2023-11-22T11:23:19;2.60;99.00
41756;DHT22;27435;48.480;9.258;2023-11-22T11:25:48;2.40;99.00
41756;DHT22;27435;48.480;9.258;2023-11-22T11:28:14;2.40;99.00
41756;DHT22;27435;48.480;9.258;2023-11-22T11:30:45;2.60;99.00
41756;DHT22;27435;48.480;9.258;2023-11-22T11:33:18;2.70;99.00
41756;DHT22;27435;48.480;9.258;2023-11-22T11:35:49;2.70;99.00
41756;DHT22;27435;48.480;9.258;2023-11-22T11:38:16;2.60;99.00
41756;DHT22;27435;48.480;9.258;2023-11-22T11:40:45;2.60;99.00
41756;DHT22;27435;48.480;9.258;2023-11-22T11:43:12;2.80;99.00
41756;DHT22;27435;48.480;9.258;2023-11-22T11:45:42;2.70;99.00
41756;DHT22;27435;48.480;9.258;2023-11-22T11:48:16;2.70;99.00
41756;DHT22;27435;48.480;9.258;2023-11-22T11:50:42;2.80;99.00
41756;DHT22;27435;48.480;9.258;2023-11-22T11:53:09;2.70;99.00
41756;DHT22;27435;48.480;9.258;2023-11-22T11:55:38;2.50;99.00
41756;DHT22;27435;48.480;9.258;2023-11-22T11:58:05;2.50;99.00
41756;DHT22;27435;48.480;9.258;2023-11-22T12:00:37;2.50;99.00
41756;DHT22;27435;48.480;9.258;2023-11-22T12:03:09;2.40;99.00
41756;DHT22;27435;48.480;9.258;2023-11-22T12:05:36;2.40;99.00
41756;DHT22;27435;48.480;9.258;2023-11-22T12:08:02;2.50;99.00
41756;DHT22;27435;48.480;9.258;2023-11-22T12:10:28;2.40;99.00
41756;DHT22;27435;48.480;9.258;2023-11-22T12:12:54;2.40;99.00
41756;DHT22;27435;48.480;9.258;2023-11-22T12:15:53;2.30;99.00
41756;DHT22;27435;48.480;9.258;2023-11-22T12:18:46;2.30;99.00
41756;DHT22;27435;48.480;9.258;2023-11-22T12:21:36;2.40;99.00
41756;DHT22;27435;48.480;9.258;2023-11-22T12:27:42;2.30;99.00
41756;DHT22;27435;48.480;9.258;2023-11-22T12:30:09;2.30;99.00
41756;DHT22;27435;48.480;9.258;2023-11-22T12:32:39;2.40;99.00
41756;DHT22;27435;48.480;9.258;2023-11-22T12:35:08;2.30;99.00
41756;DHT22;27435;48.480;9.258;2023-11-22T12:37:40;2.30;99.00
41756;DHT22;27435;48.480;9.258;2023-11-22T12:40:10;2.40;99.00
41756;DHT22;27435;48.480;9.258;2023-11-22T12:42:51;2.40;99.00
41756;DHT22;27435;48.480;9.258;2023-11-22T12:45:22;2.30;99.00
41756;DHT22;27435;48.480;9.258;2023-11-22T12:47:50;2.20;99.00
41756;DHT22;27435;48.480;9.258;2023-11-22T12:50:35;2.20;99.00
41756;DHT22;27435;48.480;9.258;2023-11-22T12:53:14;2.30;99.00
41756;DHT22;27435;48.480;9.258;2023-11-22T12:55:44;2.20;99.00
41756;DHT22;27435;48.480;9.258;2023-11-22T12:58:11;2.20;99.00
41756;DHT22;27435;48.480;9.258;2023-11-22T13:00:38;2.30;99.00
41756;DHT22;27435;48.480;9.258;2023-11-22T13:03:08;2.30;99.00
41756;DHT22;27435;48.480;9.258;2023-11-22T13:05:36;2.20;99.00
41756;DHT22;27435;48.480;9.258;2023-11-22T13:08:02;2.20;99.00
41756;DHT22;27435;48.480;9.258;2023-11-22T13:10:29;2.20;99.00
41756;DHT22;27435;48.480;9.258;2023-11-22T13:12:56;2.20;99.00
41756;DHT22;27435;48.480;9.258;2023-11-22T13:15:22;2.20;99.00
41756;DHT22;27435;48.480;9.258;2023-11-22T13:17:52;2.20;99.00
41756;DHT22;27435;48.480;9.258;2023-11-22T13:20:24;2.30;99.00
41756;DHT22;27435;48.480;9.258;2023-11-22T13:22:54;2.30;99.00
41756;DHT22;27435;48.480;9.258;2023-11-22T13:25:21;2.10;99.00
41756;DHT22;27435;48.480;9.258;2023-11-22T13:27:52;2.30;99.00
41756;DHT22;27435;48.480;9.258;2023-11-22T13:30:19;2.30;99.00
41756;DHT22;27435;48.480;9.258;2023-11-22T13:32:49;2.40;99.00
41756;DHT22;27435;48.480;9.258;2023-11-22T13:35:14;2.50;99.00
41756;DHT22;27435;48.480;9.258;2023-11-22T13:37:45;2.40;99.00
41756;DHT22;27435;48.480;9.258;2023-11-22T13:40:12;2.40;99.00
41756;DHT22;27435;48.480;9.258;2023-11-22T13:42:45;2.30;99.00
41756;DHT22;27435;48.480;9.258;2023-11-22T13:45:14;2.30;99.00
41756;DHT22;27435;48.480;9.258;2023-11-22T13:47:51;2.20;99.00
41756;DHT22;27435;48.480;9.258;2023-11-22T13:50:20;2.20;99.00
41756;DHT22;27435;48.480;9.258;2023-11-22T13:52:53;2.20;99.00
41756;DHT22;27435;48.480;9.258;2023-11-22T13:55:19;2.20;99.00
41756;DHT22;27435;48.480;9.258;2023-11-22T13:57:49;2.20;99.00
41756;DHT22;27435;48.480;9.258;2023-11-22T14:00:15;2.20;99.00
41756;DHT22;27435;48.480;9.258;2023-11-22T14:02:51;2.20;99.00
41756;DHT22;27435;48.480;9.258;2023-11-22T14:05:18;2.20;99.00
41756;DHT22;27435;48.480;9.258;2023-11-22T14:07:44;2.00;99.00
41756;DHT22;27435;48.480;9.258;2023-11-22T14:10:10;2.00;99.00
41756;DHT22;27435;48.480;9.258;2023-11-22T14:12:37;2.10;99.00
41756;DHT22;27435;48.480;9.258;2023-11-22T14:15:03;2.00;99.00
41756;DHT22;27435;48.480;9.258;2023-11-22T14:17:32;2.00;99.00
41756;DHT22;27435;48.480;9.258;2023-11-22T14:19:58;2.00;99.00
41756;DHT22;27435;48.480;9.258;2023-11-22T14:22:24;2.10;99.00
41756;DHT22;27435;48.480;9.258;2023-11-22T14:24:54;2.00;99.00
41756;DHT22;27435;48.480;9.258;2023-11-22T14:27:20;2.00;99.00
41756;DHT22;27435;48.480;9.258;2023-11-22T14:29:46;2.00;99.00
41756;DHT22;27435;48.480;9.258;2023-11-22T14:32:16;2.00;99.00
41756;DHT22;27435;48.480;9.258;2023-11-22T14:34:42;1.90;99.00
41756;DHT22;27435;48.480;9.258;2023-11-22T14:37:11;2.00;99.00
41756;DHT22;27435;48.480;9.258;2023-11-22T14:39:38;2.00;99.00
41756;DHT22;27435;48.480;9.258;2023-11-22T14:42:04;2.00;99.00
41756;DHT22;27435;48.480;9.258;2023-11-22T14:44:34;2.00;99.00
41756;DHT22;27435;48.480;9.258;2023-11-22T14:47:00;2.00;99.00
41756;DHT22;27435;48.480;9.258;2023-11-22T14:49:32;2.00;99.00
41756;DHT22;27435;48.480;9.258;2023-11-22T14:51:57;1.90;99.00
41756;DHT22;27435;48.480;9.258;2023-11-22T14:54:23;1.80;99.00
41756;DHT22;27435;48.480;9.258;2023-11-22T14:56:49;2.00;99.00
41756;DHT22;27435;48.480;9.258;2023-11-22T14:59:15;1.80;99.00
41756;DHT22;27435;48.480;9.258;2023-11-22T15:01:42;1.90;99.00
41756;DHT22;27435;48.480;9.258;2023-11-22T15:04:09;1.80;99.00
41756;DHT22;27435;48.480;9.258;2023-11-22T15:06:36;1.90;99.00
41756;DHT22;27435;48.480;9.258;2023-11-22T15:09:02;1.90;99.00
41756;DHT22;27435;48.480;9.258;2023-11-22T15:11:36;2.00;99.00
41756;DHT22;27435;48.480;9.258;2023-11-22T15:14:03;2.00;99.00
41756;DHT22;27435;48.480;9.258;2023-11-22T15:16:29;2.00;99.00
41756;DHT22;27435;48.480;9.258;2023-11-22T15:18:54;2.10;99.00
41756;DHT22;27435;48.480;9.258;2023-11-22T15:21:20;2.10;99.00
41756;DHT22;27435;48.480;9.258;2023-11-22T15:23:45;1.90;99.00
41756;DHT22;27435;48.480;9.258;2023-11-22T15:26:13;1.80;99.00
41756;DHT22;27435;48.480;9.258;2023-11-22T15:28:39;2.00;99.00
41756;DHT22;27435;48.480;9.258;2023-11-22T15:31:05;1.90;99.00
41756;DHT22;27435;48.480;9.258;2023-11-22T15:33:31;2.00;99.00
41756;DHT22;27435;48.480;9.258;2023-11-22T15:35:57;2.10;99.00
41756;DHT22;27435;48.480;9.258;2023-11-22T15:38:22;1.90;99.00
41756;DHT22;27435;48.480;9.258;2023-11-22T15:40:49;2.10;99.00
41756;DHT22;27435;48.480;9.258;2023-11-22T15:43:15;2.20;99.00
41756;DHT22;27435;48.480;9.258;2023-11-22T15:45:41;2.20;99.00
41756;DHT22;27435;48.480;9.258;2023-11-22T15:48:08;2.20;99.00
41756;DHT22;27435;48.480;9.258;2023-11-22T15:50:34;2.20;99.00
41756;DHT22;27435;48.480;9.258;2023-11-22T15:53:00;2.10;99.00
41756;DHT22;27435;48.480;9.258;2023-11-22T15:55:27;2.20;99.00